createdAt,value
2018-06-12T00:00:26.546Z,15.90
2018-06-12T00:02:55.117Z,16.00
2018-06-12T00:05:26.577Z,16.10
2018-06-12T00:07:54.931Z,16.00
2018-06-12T00:10:25.175Z,16.00
2018-06-12T00:12:53.639Z,16.00
2018-06-12T00:15:23.669Z,16.00
2018-06-12T00:17:51.675Z,16.00
2018-06-12T00:22:49.301Z,16.00
2018-06-12T00:25:17.402Z,16.10
2018-06-12T00:27:46.083Z,16.00
2018-06-12T00:30:14.347Z,16.10
2018-06-12T00:32:42.632Z,16.10
2018-06-12T00:35:13.057Z,16.10
2018-06-12T00:37:41.810Z,16.20
2018-06-12T00:40:09.883Z,16.10
2018-06-12T00:42:38.102Z,16.10
2018-06-12T00:45:09.345Z,15.90
2018-06-12T00:47:37.794Z,15.90
2018-06-12T00:50:06.954Z,15.90
2018-06-12T00:52:35.203Z,15.80
2018-06-12T00:57:33.075Z,15.80
2018-06-12T01:00:01.138Z,15.80
2018-06-12T01:02:29.799Z,15.80
2018-06-12T01:04:57.907Z,15.80
2018-06-12T01:07:25.921Z,15.80
2018-06-12T01:09:54.757Z,15.70
2018-06-12T01:12:23.007Z,15.80
2018-06-12T01:14:51.277Z,15.80
2018-06-12T01:17:20.052Z,15.90
2018-06-12T01:19:48.264Z,15.80
2018-06-12T01:22:16.891Z,15.80
2018-06-12T01:24:45.505Z,15.80
2018-06-12T01:27:13.678Z,15.80
2018-06-12T01:29:42.697Z,15.90
2018-06-12T01:32:11.905Z,15.80
2018-06-12T01:34:41.614Z,15.90
2018-06-12T01:39:38.285Z,15.90
2018-06-12T01:42:06.390Z,15.90
2018-06-12T01:44:35.266Z,16.00
2018-06-12T01:47:05.281Z,16.00
2018-06-12T01:49:34.522Z,16.00
2018-06-12T01:52:03.093Z,15.90
2018-06-12T01:54:31.373Z,15.90
2018-06-12T01:56:59.558Z,15.90
2018-06-12T01:59:28.039Z,15.90
2018-06-12T02:01:56.178Z,16.00
2018-06-12T02:04:24.818Z,16.00
2018-06-12T02:06:53.075Z,15.90
2018-06-12T02:09:21.958Z,15.90
2018-06-12T02:11:50.092Z,15.90
2018-06-12T02:14:19.073Z,15.90
2018-06-12T02:16:47.445Z,15.90
2018-06-12T02:19:19.820Z,15.90
2018-06-12T02:24:17.939Z,15.80
2018-06-12T02:26:46.134Z,15.80
2018-06-12T02:29:14.511Z,15.80
2018-06-12T02:31:42.613Z,15.70
2018-06-12T02:36:39.227Z,15.70
2018-06-12T02:39:08.060Z,15.80
2018-06-12T02:41:36.484Z,15.80
2018-06-12T02:44:04.694Z,15.70
2018-06-12T02:46:33.647Z,15.70
2018-06-12T02:49:03.010Z,15.60
2018-06-12T02:51:31.222Z,15.60
2018-06-12T02:54:00.471Z,15.50
2018-06-12T02:58:57.140Z,15.60
2018-06-12T03:01:26.693Z,15.50
2018-06-12T03:03:54.925Z,15.50
2018-06-12T03:06:23.215Z,15.40
2018-06-12T03:08:51.731Z,15.40
2018-06-12T03:11:20.063Z,15.40
2018-06-12T03:13:49.385Z,15.30
2018-06-12T03:16:17.535Z,15.40
2018-06-12T03:18:45.753Z,15.40
2018-06-12T03:21:14.060Z,15.30
2018-06-12T03:23:42.805Z,15.30
2018-06-12T03:26:12.920Z,15.20
2018-06-12T03:28:41.800Z,15.30
2018-06-12T03:31:10.011Z,15.20
2018-06-12T03:33:38.471Z,15.10
2018-06-12T03:36:07.327Z,15.10
2018-06-12T03:38:35.612Z,15.20
2018-06-12T03:41:03.810Z,15.20
2018-06-12T03:43:33.092Z,15.20
2018-06-12T03:46:01.217Z,15.10
2018-06-12T03:48:30.176Z,15.10
2018-06-12T03:50:59.881Z,15.20
2018-06-12T03:53:29.176Z,15.10
2018-06-12T03:55:57.696Z,15.10
2018-06-12T03:58:26.077Z,15.10
2018-06-12T04:00:55.129Z,15.00
2018-06-12T04:03:23.222Z,14.90
2018-06-12T04:05:52.471Z,15.00
2018-06-12T04:08:20.763Z,15.00
2018-06-12T04:10:49.034Z,15.00
2018-06-12T04:13:18.103Z,15.00
2018-06-12T04:15:46.387Z,15.00
2018-06-12T04:18:14.619Z,15.00
2018-06-12T04:20:43.367Z,15.10
2018-06-12T04:23:12.293Z,15.00
2018-06-12T04:25:40.392Z,15.00
2018-06-12T04:30:36.584Z,15.00
2018-06-12T04:33:05.055Z,15.10
2018-06-12T04:35:33.851Z,15.00
2018-06-12T04:38:02.929Z,15.10
2018-06-12T04:40:31.042Z,15.10
2018-06-12T04:42:59.690Z,15.10
2018-06-12T04:45:28.412Z,15.10
2018-06-12T04:47:57.670Z,15.00
2018-06-12T04:50:26.654Z,15.00
2018-06-12T04:52:56.606Z,15.10
2018-06-12T04:55:25.590Z,15.20
2018-06-12T04:57:53.790Z,15.20
2018-06-12T05:00:22.808Z,15.10
2018-06-12T05:02:51.171Z,15.20
2018-06-12T05:05:20.247Z,15.20
2018-06-12T05:07:49.789Z,15.20
2018-06-12T05:12:45.939Z,15.30
2018-06-12T05:15:15.309Z,15.30
2018-06-12T05:17:43.405Z,15.20
2018-06-12T05:20:11.657Z,15.20
2018-06-12T05:22:41.554Z,15.20
2018-06-12T05:25:10.783Z,15.20
2018-06-12T05:27:38.837Z,15.20
2018-06-12T05:30:07.916Z,15.30
2018-06-12T05:32:35.999Z,15.20
2018-06-12T05:35:05.019Z,15.30
2018-06-12T05:40:01.906Z,15.30
2018-06-12T05:42:30.455Z,15.40
2018-06-12T05:44:58.653Z,15.40
2018-06-12T05:47:28.808Z,15.40
2018-06-12T05:49:59.219Z,15.50
2018-06-12T05:52:27.573Z,15.40
2018-06-12T05:54:58.696Z,15.50
2018-06-12T05:57:27.942Z,15.60
2018-06-12T05:59:56.450Z,15.70
2018-06-12T06:02:25.340Z,15.70
2018-06-12T06:04:53.584Z,15.80
2018-06-12T06:07:22.779Z,15.70
2018-06-12T06:09:51.838Z,15.70
2018-06-12T06:12:21.136Z,15.70
2018-06-12T06:14:49.333Z,15.60
2018-06-12T06:17:19.305Z,15.70
2018-06-12T06:19:47.583Z,15.60
2018-06-12T06:22:16.535Z,15.70
2018-06-12T06:24:45.466Z,15.80
2018-06-12T06:27:16.710Z,15.80
2018-06-12T06:29:44.909Z,15.90
2018-06-12T06:32:13.156Z,15.90
2018-06-12T06:34:41.630Z,15.90
2018-06-12T06:37:09.987Z,15.80
2018-06-12T06:39:40.064Z,15.80
2018-06-12T06:42:08.989Z,15.60
2018-06-12T06:44:37.099Z,15.70
2018-06-12T06:47:07.454Z,15.70
2018-06-12T06:49:35.818Z,15.80
2018-06-12T06:52:34.822Z,15.70
2018-06-12T06:55:04.087Z,15.60
2018-06-12T06:57:32.194Z,15.60
2018-06-12T07:00:00.703Z,15.60
2018-06-12T07:02:33.277Z,15.60
2018-06-12T07:05:01.830Z,15.60
2018-06-12T07:07:30.408Z,15.60
2018-06-12T07:09:58.545Z,15.80
2018-06-12T07:12:26.646Z,15.70
2018-06-12T07:17:22.855Z,15.90
2018-06-12T07:19:52.235Z,15.80
2018-06-12T07:22:20.794Z,15.90
2018-06-12T07:24:49.110Z,16.10
2018-06-12T07:27:18.375Z,16.10
2018-06-12T07:32:16.255Z,16.20
2018-06-12T07:37:12.754Z,16.00
2018-06-12T07:39:41.346Z,16.00
2018-06-12T07:44:37.464Z,16.00
2018-06-12T07:47:07.227Z,16.10
2018-06-12T07:49:35.211Z,16.10
2018-06-12T07:52:04.592Z,16.00
2018-06-12T07:54:34.021Z,16.00
2018-06-12T07:57:03.271Z,16.10
2018-06-12T07:59:31.309Z,16.10
2018-06-12T08:01:59.440Z,16.10
2018-06-12T08:04:28.072Z,16.10
2018-06-12T08:06:56.243Z,16.00
2018-06-12T08:09:24.342Z,15.80
2018-06-12T08:11:54.418Z,15.80
2018-06-12T08:14:23.379Z,15.80
2018-06-12T08:16:53.817Z,15.70
2018-06-12T08:19:21.848Z,15.70
2018-06-12T08:24:19.479Z,15.60
2018-06-12T08:26:47.913Z,15.70
2018-06-12T08:29:16.350Z,15.50
2018-06-12T08:31:44.676Z,15.60
2018-06-12T08:34:13.204Z,15.60
2018-06-12T08:36:41.893Z,15.70
2018-06-12T08:39:10.115Z,15.60
2018-06-12T08:44:09.895Z,15.70
2018-06-12T08:46:39.409Z,15.80
2018-06-12T08:49:08.214Z,15.80
2018-06-12T08:51:37.634Z,15.80
2018-06-12T08:56:34.795Z,16.00
2018-06-12T09:01:35.291Z,16.10
2018-06-12T09:04:03.431Z,16.20
2018-06-12T09:06:33.079Z,16.30
2018-06-12T09:09:01.251Z,16.40
2018-06-12T09:11:29.281Z,16.50
2018-06-12T09:13:58.375Z,16.20
2018-06-12T09:16:26.915Z,16.30
2018-06-12T09:18:54.943Z,16.30
2018-06-12T09:21:23.047Z,16.20
2018-06-12T09:23:51.221Z,16.20
2018-06-12T09:26:20.310Z,16.10
2018-06-12T09:28:48.734Z,16.30
2018-06-12T09:31:18.497Z,16.40
2018-06-12T09:33:46.672Z,16.40
2018-06-12T09:36:20.585Z,16.60
2018-06-12T09:38:49.931Z,16.70
2018-06-12T09:43:49.874Z,16.90
2018-06-12T09:46:18.163Z,17.00
2018-06-12T09:48:48.917Z,17.10
2018-06-12T09:51:20.352Z,17.10
2018-06-12T09:53:49.485Z,17.30
2018-06-12T09:56:18.730Z,17.40
2018-06-12T10:01:21.172Z,17.50
2018-06-12T10:07:14.103Z,17.30
2018-06-12T10:09:45.901Z,17.50
2018-06-12T10:12:14.342Z,17.50
2018-06-12T10:14:43.747Z,17.50
2018-06-12T10:20:35.075Z,17.10
2018-06-12T10:23:05.062Z,17.30
2018-06-12T10:25:38.528Z,17.60
2018-06-12T10:28:06.931Z,17.70
2018-06-12T10:30:35.111Z,17.90
2018-06-12T10:33:04.036Z,17.80
2018-06-12T10:35:33.093Z,17.60
2018-06-12T10:38:04.424Z,17.70
2018-06-12T10:40:34.028Z,17.50
2018-06-12T10:43:02.763Z,17.50
2018-06-12T10:45:31.861Z,17.50
2018-06-12T10:48:01.261Z,17.60
2018-06-12T10:50:29.493Z,17.50
2018-06-12T10:52:58.477Z,17.70
2018-06-12T10:55:26.474Z,17.80
2018-06-12T10:57:54.836Z,17.90
2018-06-12T11:00:25.174Z,17.90
2018-06-12T11:02:53.660Z,17.90
2018-06-12T11:05:22.677Z,17.90
2018-06-12T11:07:51.023Z,17.90
2018-06-12T11:10:19.377Z,17.80
2018-06-12T11:12:47.616Z,17.90
2018-06-12T11:15:16.389Z,18.00
2018-06-12T11:17:45.083Z,18.00
2018-06-12T11:22:44.096Z,17.90
2018-06-12T11:25:13.655Z,17.90
2018-06-12T11:27:43.252Z,17.90
2018-06-12T11:30:12.885Z,17.80
2018-06-12T11:32:41.560Z,17.80
2018-06-12T11:35:09.725Z,17.90
2018-06-12T11:37:40.634Z,18.00
2018-06-12T11:40:09.355Z,17.90
2018-06-12T11:42:37.743Z,17.90
2018-06-12T11:45:07.747Z,18.00
2018-06-12T11:47:36.939Z,17.90
2018-06-12T11:50:09.086Z,17.70
2018-06-12T11:52:44.165Z,17.70
2018-06-12T11:55:15.198Z,17.80
2018-06-12T11:57:43.499Z,17.70
2018-06-12T12:00:13.358Z,17.50
2018-06-12T12:02:42.896Z,17.70
2018-06-12T12:05:12.190Z,17.80
2018-06-12T12:07:41.206Z,17.80
2018-06-12T12:10:09.517Z,17.80
2018-06-12T12:12:38.310Z,18.00
2018-06-12T12:15:07.490Z,18.30
2018-06-12T12:17:36.090Z,18.10
2018-06-12T12:20:04.314Z,18.20
2018-06-12T12:22:33.001Z,18.20
2018-06-12T12:25:01.367Z,18.20
2018-06-12T12:27:31.356Z,18.30
2018-06-12T12:30:00.447Z,18.40
2018-06-12T12:32:28.758Z,18.50
2018-06-12T12:34:58.590Z,18.40
2018-06-12T12:37:27.727Z,18.50
2018-06-12T12:39:57.255Z,18.50
2018-06-12T12:42:25.845Z,18.40
2018-06-12T12:44:54.445Z,18.40
2018-06-12T12:47:23.432Z,18.60
2018-06-12T12:49:53.927Z,18.50
2018-06-12T12:52:22.277Z,18.60
2018-06-12T12:54:52.130Z,18.70
2018-06-12T12:57:20.286Z,18.90
2018-06-12T12:59:48.929Z,18.90
2018-06-12T13:02:18.286Z,18.90
2018-06-12T13:04:47.851Z,19.10
2018-06-12T13:07:17.911Z,19.20
2018-06-12T13:09:46.337Z,19.10
2018-06-12T13:12:14.575Z,19.00
2018-06-12T13:14:48.831Z,19.10
2018-06-12T13:17:19.990Z,18.90
2018-06-12T13:19:52.216Z,19.00
2018-06-12T13:22:23.691Z,18.90
2018-06-12T13:24:52.793Z,18.90
2018-06-12T13:29:56.398Z,18.80
2018-06-12T13:32:27.365Z,18.70
2018-06-12T13:34:56.060Z,18.70
2018-06-12T13:37:25.921Z,18.80
2018-06-12T13:39:57.255Z,18.90
2018-06-12T13:42:27.541Z,19.10
2018-06-12T13:44:56.999Z,18.80
2018-06-12T13:47:26.471Z,18.60
2018-06-12T13:49:57.860Z,18.70
2018-06-12T13:52:26.683Z,19.00
2018-06-12T13:54:55.775Z,18.90
2018-06-12T13:57:24.666Z,18.80
2018-06-12T13:59:53.035Z,18.90
2018-06-12T14:02:21.146Z,18.90
2018-06-12T14:04:50.411Z,19.10
2018-06-12T14:07:19.306Z,18.90
2018-06-12T14:09:47.378Z,18.60
2018-06-12T14:12:16.624Z,18.70
2018-06-12T14:14:48.635Z,18.80
2018-06-12T14:17:16.880Z,18.90
2018-06-12T14:19:47.811Z,18.70
2018-06-12T14:22:16.365Z,18.60
2018-06-12T14:24:46.247Z,18.70
2018-06-12T14:27:15.483Z,18.80
2018-06-12T14:29:44.209Z,18.80
2018-06-12T14:32:12.356Z,18.90
2018-06-12T14:34:47.539Z,18.90
2018-06-12T14:37:17.488Z,18.90
2018-06-12T14:39:46.022Z,19.10
2018-06-12T14:42:16.284Z,19.10
2018-06-12T14:44:45.445Z,19.20
2018-06-12T14:47:16.036Z,19.00
2018-06-12T14:49:45.750Z,19.10
2018-06-12T14:52:16.040Z,18.90
2018-06-12T14:54:44.334Z,18.90
2018-06-12T14:57:12.434Z,19.10
2018-06-12T14:59:40.694Z,18.80
2018-06-12T15:02:13.342Z,18.80
2018-06-12T15:04:42.593Z,18.80
2018-06-12T15:07:16.858Z,18.90
2018-06-12T15:09:49.681Z,18.90
2018-06-12T15:12:18.115Z,18.90
2018-06-12T15:14:48.090Z,18.70
2018-06-12T15:17:17.346Z,18.80
2018-06-12T15:19:46.262Z,19.00
2018-06-12T15:22:14.748Z,19.00
2018-06-12T15:24:44.351Z,19.10
2018-06-12T15:27:15.662Z,18.70
2018-06-12T15:29:50.658Z,18.90
2018-06-12T15:32:22.032Z,18.90
2018-06-12T15:34:51.179Z,18.90
2018-06-12T15:37:21.465Z,18.90
2018-06-12T15:39:52.180Z,18.80
2018-06-12T15:42:21.283Z,18.80
2018-06-12T15:44:50.616Z,18.70
2018-06-12T15:47:19.174Z,18.90
2018-06-12T15:49:47.817Z,19.00
2018-06-12T15:52:19.103Z,18.80
2018-06-12T15:54:48.310Z,18.80
2018-06-12T15:57:16.574Z,18.60
2018-06-12T15:59:45.577Z,18.30
2018-06-12T16:02:15.729Z,18.60
2018-06-12T16:07:15.387Z,18.50
2018-06-12T16:09:47.795Z,18.20
2018-06-12T16:12:16.343Z,18.10
2018-06-12T16:14:44.567Z,18.20
2018-06-12T16:17:15.484Z,18.20
2018-06-12T16:19:44.915Z,18.20
2018-06-12T16:22:17.225Z,18.30
2018-06-12T16:24:45.377Z,18.30
2018-06-12T16:27:13.558Z,18.40
2018-06-12T16:29:42.218Z,18.40
2018-06-12T16:32:12.321Z,18.50
2018-06-12T16:34:42.580Z,18.60
2018-06-12T16:37:15.102Z,18.60
2018-06-12T16:39:44.581Z,18.40
2018-06-12T16:42:13.870Z,18.50
2018-06-12T16:44:46.197Z,18.70
2018-06-12T16:47:16.754Z,18.70
2018-06-12T16:49:47.035Z,18.70
2018-06-12T16:52:15.409Z,18.70
2018-06-12T16:54:45.173Z,18.70
2018-06-12T16:57:14.934Z,18.40
2018-06-12T16:59:43.239Z,18.30
2018-06-12T17:02:13.001Z,18.40
2018-06-12T17:04:41.853Z,18.40
2018-06-12T17:07:13.618Z,18.50
2018-06-12T17:09:43.104Z,18.50
2018-06-12T17:12:11.533Z,18.50
2018-06-12T17:14:40.501Z,18.30
2018-06-12T17:17:08.991Z,18.20
2018-06-12T17:19:40.865Z,18.20
2018-06-12T17:22:10.030Z,18.20
2018-06-12T17:24:39.747Z,18.20
2018-06-12T17:27:13.083Z,18.20
2018-06-12T17:29:41.575Z,18.20
2018-06-12T17:32:13.709Z,18.30
2018-06-12T17:34:45.121Z,18.20
2018-06-12T17:39:47.567Z,18.10
2018-06-12T17:42:20.308Z,18.10
2018-06-12T17:44:50.422Z,18.20
2018-06-12T17:47:20.310Z,18.20
2018-06-12T17:52:21.828Z,18.20
2018-06-12T17:54:50.672Z,18.00
2018-06-12T17:57:19.659Z,18.00
2018-06-12T17:59:52.631Z,18.00
2018-06-12T18:02:23.695Z,18.20
2018-06-12T18:04:54.113Z,18.10
2018-06-12T18:07:27.940Z,18.10
2018-06-12T18:09:57.582Z,18.10
2018-06-12T18:12:32.334Z,17.90
2018-06-12T18:15:09.211Z,17.90
2018-06-12T18:17:38.742Z,18.00
2018-06-12T18:20:11.977Z,18.00
2018-06-12T18:22:43.255Z,17.90
2018-06-12T18:25:12.758Z,17.90
2018-06-12T18:27:45.487Z,17.80
2018-06-12T18:30:14.781Z,17.60
2018-06-12T18:32:51.562Z,17.50
2018-06-12T18:35:24.031Z,17.50
2018-06-12T18:40:56.224Z,17.50
2018-06-12T18:43:26.110Z,17.40
2018-06-12T18:46:04.812Z,17.40
2018-06-12T18:48:35.864Z,17.30
2018-06-12T18:51:10.284Z,17.30
2018-06-12T18:53:40.003Z,17.30
2018-06-12T18:56:10.266Z,17.10
2018-06-12T18:58:50.840Z,17.10
2018-06-12T19:04:48.350Z,16.90
2018-06-12T19:07:17.734Z,16.90
2018-06-12T19:09:53.433Z,16.80
2018-06-12T19:12:28.922Z,16.90
2018-06-12T19:14:59.870Z,16.90
2018-06-12T19:17:30.407Z,16.90
2018-06-12T19:20:01.097Z,16.90
2018-06-12T19:22:31.874Z,16.90
2018-06-12T19:25:01.973Z,16.90
2018-06-12T19:27:31.358Z,16.90
2018-06-12T19:30:02.282Z,16.90
2018-06-12T19:32:30.590Z,16.80
2018-06-12T19:35:02.337Z,16.80
2018-06-12T19:37:35.611Z,16.80
2018-06-12T19:40:07.103Z,16.70
2018-06-12T19:42:36.881Z,16.60
2018-06-12T19:45:08.933Z,16.60
2018-06-12T19:47:38.150Z,16.60
2018-06-12T19:50:08.021Z,16.60
2018-06-12T19:52:39.415Z,16.50
2018-06-12T19:55:08.637Z,16.40
2018-06-12T19:57:39.912Z,16.40
2018-06-12T20:00:09.918Z,16.40
2018-06-12T20:02:38.623Z,16.50
2018-06-12T20:05:08.179Z,16.50
2018-06-12T20:07:37.930Z,16.40
2018-06-12T20:10:07.184Z,16.50
2018-06-12T20:12:39.756Z,16.40
2018-06-12T20:15:12.062Z,16.40
2018-06-12T20:17:41.847Z,16.40
2018-06-12T20:20:10.406Z,16.40
2018-06-12T20:22:39.193Z,16.30
2018-06-12T20:25:10.746Z,16.30
2018-06-12T20:27:40.604Z,16.30
2018-06-12T20:30:11.606Z,16.20
2018-06-12T20:32:41.342Z,16.10
2018-06-12T20:35:11.535Z,16.10
2018-06-12T20:37:43.105Z,16.20
2018-06-12T20:40:12.990Z,16.10
2018-06-12T20:42:44.109Z,16.10
2018-06-12T20:45:17.593Z,16.10
2018-06-12T20:50:15.714Z,16.10
2018-06-12T20:52:51.589Z,16.10
2018-06-12T20:55:22.519Z,16.10
2018-06-12T20:57:52.233Z,16.10
2018-06-12T21:00:20.737Z,16.00
2018-06-12T21:02:49.288Z,16.00
2018-06-12T21:05:19.100Z,15.90
2018-06-12T21:07:50.965Z,15.90
2018-06-12T21:10:21.253Z,15.90
2018-06-12T21:12:50.768Z,15.90
2018-06-12T21:15:21.040Z,15.90
2018-06-12T21:17:51.537Z,15.90
2018-06-12T21:20:28.903Z,15.90
2018-06-12T21:23:01.531Z,15.90
2018-06-12T21:25:31.178Z,15.90
2018-06-12T21:27:59.950Z,15.80
2018-06-12T21:32:58.737Z,15.70
2018-06-12T21:35:29.140Z,15.70
2018-06-12T21:37:59.597Z,15.80
2018-06-12T21:40:28.227Z,15.70
2018-06-12T21:42:56.571Z,15.80
2018-06-12T21:45:25.630Z,15.70
2018-06-12T21:47:55.820Z,15.70
2018-06-12T21:50:26.174Z,15.70
2018-06-12T21:52:56.687Z,15.70
2018-06-12T21:55:26.084Z,15.70
2018-06-12T21:57:54.602Z,15.60
2018-06-12T22:00:36.830Z,15.60
2018-06-12T22:03:08.129Z,15.60
2018-06-12T22:05:37.027Z,15.60
2018-06-12T22:08:08.059Z,15.50
2018-06-12T22:10:40.336Z,15.60
2018-06-12T22:13:09.428Z,15.50
2018-06-12T22:15:37.728Z,15.50
2018-06-12T22:18:06.269Z,15.60
2018-06-12T22:20:35.112Z,15.60
2018-06-12T22:25:32.662Z,15.40
2018-06-12T22:28:01.660Z,15.40
2018-06-12T22:30:31.434Z,15.40
2018-06-12T22:33:03.606Z,15.30
2018-06-12T22:35:34.336Z,15.40
2018-06-12T22:38:03.181Z,15.50
2018-06-12T22:43:05.825Z,15.40
2018-06-12T22:45:34.512Z,15.40
2018-06-12T22:48:06.780Z,15.40
2018-06-12T22:50:36.279Z,15.40
2018-06-12T22:53:05.394Z,15.40
2018-06-12T22:55:34.808Z,15.40
2018-06-12T23:03:08.620Z,15.30
2018-06-12T23:05:36.797Z,15.30
2018-06-12T23:08:05.353Z,15.30
2018-06-12T23:10:33.547Z,15.30
2018-06-12T23:13:02.261Z,15.30
2018-06-12T23:15:33.910Z,15.30
2018-06-12T23:18:02.112Z,15.30
2018-06-12T23:20:48.123Z,15.30
2018-06-12T23:23:16.303Z,15.20
2018-06-12T23:25:44.608Z,15.10
2018-06-12T23:28:12.759Z,15.00
2018-06-12T23:30:41.238Z,15.00
2018-06-12T23:33:09.647Z,14.90
2018-06-12T23:35:37.924Z,15.00
2018-06-12T23:38:06.030Z,14.90
2018-06-12T23:40:34.804Z,15.00
2018-06-12T23:43:03.048Z,14.90
2018-06-12T23:45:32.607Z,14.90
2018-06-12T23:48:00.697Z,14.90
2018-06-12T23:50:28.712Z,14.90
2018-06-12T23:52:57.097Z,14.90
2018-06-12T23:55:25.166Z,14.80
2018-06-12T23:57:53.284Z,14.70
